createdAt,value
2022-11-27T00:01:23.607Z,2.50
2022-11-27T00:03:52.138Z,2.60
2022-11-27T00:06:24.362Z,2.50
2022-11-27T00:08:53.145Z,2.93
2022-11-27T00:11:23.678Z,2.87
2022-11-27T00:13:52.198Z,3.57
2022-11-27T00:16:21.853Z,2.10
2022-11-27T00:18:51.173Z,3.00
2022-11-27T00:21:24.183Z,2.50
2022-11-27T00:23:53.501Z,3.03
2022-11-27T00:26:22.659Z,3.60
2022-11-27T00:28:51.430Z,3.20
2022-11-27T00:31:21.716Z,3.20
2022-11-27T00:33:50.141Z,4.27
2022-11-27T00:36:18.562Z,4.37
2022-11-27T00:38:48.406Z,3.90
2022-11-27T00:41:18.131Z,2.63
2022-11-27T00:43:46.828Z,2.63
2022-11-27T00:46:15.298Z,3.70
2022-11-27T00:48:43.907Z,3.20
2022-11-27T00:51:14.571Z,2.67
2022-11-27T00:53:43.790Z,2.43
2022-11-27T00:56:17.853Z,2.20
2022-11-27T00:58:46.358Z,2.83
2022-11-27T01:01:19.969Z,2.67
2022-11-27T01:03:48.659Z,3.30
2022-11-27T01:06:18.113Z,2.60
2022-11-27T01:08:46.585Z,2.83
2022-11-27T01:11:18.214Z,2.87
2022-11-27T01:13:46.720Z,2.80
2022-11-27T01:16:17.512Z,3.53
2022-11-27T01:18:48.107Z,3.40
2022-11-27T01:21:18.553Z,2.60
2022-11-27T01:23:49.218Z,3.27
2022-11-27T01:26:19.868Z,2.63
2022-11-27T01:28:48.604Z,2.20
2022-11-27T01:31:19.012Z,1.80
2022-11-27T01:33:48.166Z,2.03
2022-11-27T01:36:17.836Z,2.73
2022-11-27T01:38:46.149Z,2.20
2022-11-27T01:41:17.319Z,2.00
2022-11-27T01:43:49.521Z,2.50
2022-11-27T01:46:32.621Z,1.70
2022-11-27T01:49:24.770Z,2.00
2022-11-27T01:51:57.472Z,1.90
2022-11-27T01:54:29.301Z,2.23
2022-11-27T01:57:04.378Z,2.53
2022-11-27T01:59:34.335Z,2.83
2022-11-27T02:02:04.380Z,2.33
2022-11-27T02:04:33.237Z,1.93
2022-11-27T02:07:01.851Z,2.67
2022-11-27T02:09:31.747Z,2.60
2022-11-27T02:12:08.323Z,2.03
2022-11-27T02:14:46.256Z,2.37
2022-11-27T02:17:21.367Z,2.03
2022-11-27T02:20:12.015Z,2.10
2022-11-27T02:22:59.274Z,2.47
2022-11-27T02:25:35.342Z,1.73
2022-11-27T02:28:30.913Z,2.30
2022-11-27T02:31:07.380Z,2.60
2022-11-27T02:33:40.711Z,2.80
2022-11-27T02:36:13.329Z,2.53
2022-11-27T02:38:45.884Z,1.67
2022-11-27T02:41:18.987Z,4.23
2022-11-27T02:43:49.924Z,1.77
2022-11-27T02:46:21.294Z,1.70
2022-11-27T02:48:52.841Z,1.80
2022-11-27T02:51:24.284Z,2.23
2022-11-27T02:53:55.050Z,1.67
2022-11-27T02:56:27.823Z,1.53
2022-11-27T02:58:58.630Z,1.50
2022-11-27T03:01:30.923Z,1.90
2022-11-27T03:04:01.139Z,2.77
2022-11-27T03:06:32.395Z,1.10
2022-11-27T03:09:06.291Z,2.63
2022-11-27T03:11:35.281Z,1.57
2022-11-27T03:14:07.177Z,1.43
2022-11-27T03:16:42.712Z,1.47
2022-11-27T03:19:21.014Z,1.40
2022-11-27T03:21:52.225Z,1.80
2022-11-27T03:24:20.788Z,1.80
2022-11-27T03:26:50.582Z,2.13
2022-11-27T03:29:21.776Z,1.67
2022-11-27T03:31:51.449Z,1.87
2022-11-27T03:34:20.246Z,1.60
2022-11-27T03:36:48.549Z,2.10
2022-11-27T03:39:17.386Z,1.83
2022-11-27T03:41:52.075Z,2.27
2022-11-27T03:44:27.676Z,1.93
2022-11-27T03:47:09.128Z,1.20
2022-11-27T03:49:49.974Z,1.73
2022-11-27T03:52:28.253Z,1.40
2022-11-27T03:55:06.239Z,1.87
2022-11-27T03:57:41.609Z,1.50
2022-11-27T04:00:11.579Z,1.93
2022-11-27T04:02:43.375Z,1.50
2022-11-27T04:05:12.771Z,1.50
2022-11-27T04:07:41.727Z,2.20
2022-11-27T04:10:11.604Z,1.53
2022-11-27T04:12:40.150Z,1.30
2022-11-27T04:15:09.285Z,1.70
2022-11-27T04:17:37.830Z,1.23
2022-11-27T04:20:09.609Z,1.87
2022-11-27T04:22:37.884Z,1.73
2022-11-27T04:25:07.693Z,1.60
2022-11-27T04:27:35.987Z,1.37
2022-11-27T04:30:05.051Z,1.50
2022-11-27T04:32:33.529Z,2.03
2022-11-27T04:35:01.755Z,2.07
2022-11-27T04:37:31.499Z,1.87
2022-11-27T04:39:59.809Z,1.73
2022-11-27T04:42:28.459Z,3.23
2022-11-27T04:44:56.857Z,2.00
2022-11-27T04:47:25.362Z,1.90
2022-11-27T04:49:53.663Z,2.13
2022-11-27T04:52:21.972Z,2.10
2022-11-27T04:54:56.775Z,2.63
2022-11-27T04:57:28.078Z,3.43
2022-11-27T04:59:56.421Z,2.33
2022-11-27T05:02:24.799Z,3.13
2022-11-27T05:04:53.056Z,2.63
2022-11-27T05:07:22.144Z,2.60
2022-11-27T05:09:52.405Z,2.20
2022-11-27T05:12:20.726Z,2.00
2022-11-27T05:14:49.021Z,2.23
2022-11-27T05:17:17.448Z,2.07
2022-11-27T05:19:45.695Z,2.00
2022-11-27T05:22:14.039Z,2.13
2022-11-27T05:24:42.579Z,2.53
2022-11-27T05:27:12.381Z,2.43
2022-11-27T05:29:40.745Z,2.50
2022-11-27T05:32:09.070Z,2.00
2022-11-27T05:34:37.497Z,3.53
2022-11-27T05:37:05.863Z,2.20
2022-11-27T05:39:34.144Z,1.70
2022-11-27T05:42:02.480Z,1.83
2022-11-27T05:44:32.432Z,1.70
2022-11-27T05:47:00.796Z,1.90
2022-11-27T05:49:29.151Z,1.70
2022-11-27T05:51:57.432Z,2.13
2022-11-27T05:54:25.726Z,1.93
2022-11-27T05:56:54.013Z,2.17
2022-11-27T05:59:22.597Z,2.17
2022-11-27T06:01:52.357Z,2.33
2022-11-27T06:04:21.022Z,2.20
2022-11-27T06:06:49.360Z,1.70
2022-11-27T06:09:17.678Z,1.77
2022-11-27T06:11:45.958Z,1.60
2022-11-27T06:14:14.445Z,3.60
2022-11-27T06:16:42.791Z,3.10
2022-11-27T06:19:12.828Z,1.67
2022-11-27T06:21:41.148Z,2.37
2022-11-27T06:24:09.468Z,2.23
2022-11-27T06:26:37.808Z,2.27
2022-11-27T06:29:06.215Z,3.27
2022-11-27T06:31:34.913Z,2.60
2022-11-27T06:34:04.624Z,2.87
2022-11-27T06:36:38.071Z,2.27
2022-11-27T06:39:08.014Z,2.17
2022-11-27T06:41:36.322Z,2.30
2022-11-27T06:44:05.172Z,1.60
2022-11-27T06:46:33.485Z,2.00
2022-11-27T06:49:02.594Z,2.27
2022-11-27T06:51:33.557Z,2.30
2022-11-27T06:54:03.430Z,2.47
2022-11-27T06:56:33.403Z,2.30
2022-11-27T06:59:02.820Z,2.30
2022-11-27T07:01:32.671Z,2.50
2022-11-27T07:04:01.489Z,3.40
2022-11-27T07:06:29.930Z,2.90
2022-11-27T07:08:59.959Z,2.57
2022-11-27T07:11:31.950Z,2.87
2022-11-27T07:14:02.170Z,3.30
2022-11-27T07:16:33.862Z,3.87
2022-11-27T07:19:04.205Z,3.90
2022-11-27T07:21:32.612Z,7.47
2022-11-27T07:24:02.754Z,12.10
2022-11-27T07:26:31.542Z,12.43
2022-11-27T07:28:59.947Z,11.30
2022-11-27T07:31:30.445Z,7.73
2022-11-27T07:33:59.320Z,8.30
2022-11-27T07:36:29.524Z,7.77
2022-11-27T07:38:58.613Z,8.17
2022-11-27T07:41:33.669Z,7.23
2022-11-27T07:44:02.556Z,7.03
2022-11-27T07:46:31.368Z,6.67
2022-11-27T07:49:00.716Z,7.27
2022-11-27T07:51:29.370Z,5.07
2022-11-27T07:53:57.667Z,9.20
2022-11-27T07:56:27.552Z,8.43
2022-11-27T07:58:55.828Z,7.80
2022-11-27T08:01:24.131Z,6.70
2022-11-27T08:03:52.511Z,6.13
2022-11-27T08:06:22.511Z,5.90
2022-11-27T08:08:51.213Z,4.27
2022-11-27T08:11:22.107Z,3.97
2022-11-27T08:13:52.534Z,4.20
2022-11-27T08:16:20.907Z,6.70
2022-11-27T08:18:49.237Z,3.80
2022-11-27T08:21:17.728Z,2.93
2022-11-27T08:23:46.098Z,3.87
2022-11-27T08:26:14.762Z,4.83
2022-11-27T08:28:43.805Z,4.43
2022-11-27T08:31:15.370Z,3.77
2022-11-27T08:33:43.720Z,3.03
2022-11-27T08:36:17.653Z,2.63
2022-11-27T08:38:46.724Z,2.60
2022-11-27T08:41:15.288Z,2.30
2022-11-27T08:43:43.778Z,1.90
2022-11-27T08:46:14.002Z,2.10
2022-11-27T08:48:43.041Z,1.97
2022-11-27T08:51:13.646Z,2.63
2022-11-27T08:53:44.175Z,5.43
2022-11-27T08:56:16.147Z,1.93
2022-11-27T08:58:44.721Z,2.10
2022-11-27T09:01:17.891Z,1.93
2022-11-27T09:03:46.827Z,2.47
2022-11-27T09:06:16.984Z,3.67
2022-11-27T09:08:45.465Z,2.00
2022-11-27T09:11:16.100Z,1.77
2022-11-27T09:13:45.014Z,2.20
2022-11-27T09:16:16.880Z,1.70
2022-11-27T09:18:46.426Z,2.23
2022-11-27T09:21:16.211Z,1.87
2022-11-27T09:23:44.634Z,2.07
2022-11-27T09:26:15.557Z,1.63
2022-11-27T09:28:44.939Z,1.77
2022-11-27T09:31:17.033Z,2.10
2022-11-27T09:33:46.077Z,2.00
2022-11-27T09:36:16.504Z,2.03
2022-11-27T09:38:45.174Z,1.70
2022-11-27T09:41:55.205Z,1.43
2022-11-27T09:44:32.651Z,1.90
2022-11-27T09:47:10.831Z,1.67
2022-11-27T09:49:45.364Z,1.48
2022-11-27T09:52:21.202Z,1.88
2022-11-27T09:54:55.943Z,1.48
2022-11-27T09:57:29.330Z,1.40
2022-11-27T10:00:01.841Z,1.48
2022-11-27T10:02:33.752Z,2.17
2022-11-27T10:05:13.761Z,1.63
2022-11-27T10:07:54.907Z,1.02
2022-11-27T10:10:37.937Z,2.22
2022-11-27T10:13:18.620Z,2.15
2022-11-27T10:15:53.109Z,1.33
2022-11-27T10:18:31.384Z,1.70
2022-11-27T10:21:04.365Z,1.58
2022-11-27T10:23:42.833Z,1.42
2022-11-27T10:26:18.666Z,2.63
2022-11-27T10:28:57.372Z,1.85
2022-11-27T10:31:36.297Z,2.17
2022-11-27T10:34:08.782Z,1.27
2022-11-27T10:36:41.118Z,1.30
2022-11-27T10:39:18.360Z,2.33
2022-11-27T10:41:53.480Z,1.42
2022-11-27T10:44:32.488Z,1.40
2022-11-27T10:47:04.304Z,1.40
2022-11-27T10:49:35.316Z,2.30
2022-11-27T10:52:03.642Z,2.10
2022-11-27T10:54:36.686Z,3.25
2022-11-27T10:57:17.496Z,2.15
2022-11-27T10:59:51.940Z,4.20
2022-11-27T11:02:29.637Z,2.03
2022-11-27T11:05:30.149Z,1.75
2022-11-27T11:08:01.776Z,1.48
2022-11-27T11:10:34.678Z,1.25
2022-11-27T11:13:18.069Z,1.60
2022-11-27T11:15:53.705Z,4.68
2022-11-27T11:18:23.857Z,3.47
2022-11-27T11:20:55.862Z,2.58
2022-11-27T11:23:31.930Z,1.52
2022-11-27T11:26:04.820Z,2.10
2022-11-27T11:28:39.549Z,1.50
2022-11-27T11:31:13.374Z,1.48
2022-11-27T11:33:51.056Z,1.67
2022-11-27T11:36:21.386Z,2.03
2022-11-27T11:38:50.231Z,1.30
2022-11-27T11:41:19.198Z,1.20
2022-11-27T11:44:02.390Z,2.45
2022-11-27T11:46:33.772Z,1.70
2022-11-27T11:49:06.706Z,2.03
2022-11-27T11:51:58.742Z,1.52
2022-11-27T11:54:49.997Z,1.90
2022-11-27T11:57:54.410Z,2.80
2022-11-27T12:00:30.154Z,2.22
2022-11-27T12:03:17.179Z,2.05
2022-11-27T12:06:04.036Z,1.92
2022-11-27T12:08:52.900Z,1.70
2022-11-27T12:11:30.485Z,1.63
2022-11-27T12:14:11.396Z,3.58
2022-11-27T12:16:48.728Z,1.55
2022-11-27T12:19:42.981Z,1.20
2022-11-27T12:22:22.901Z,2.65
2022-11-27T12:25:04.453Z,2.45
2022-11-27T12:27:46.754Z,1.88
2022-11-27T12:30:20.126Z,2.25
2022-11-27T12:33:09.169Z,2.13
2022-11-27T12:35:44.204Z,1.70
2022-11-27T12:38:30.276Z,2.10
2022-11-27T12:41:13.233Z,2.97
2022-11-27T12:43:46.558Z,3.40
2022-11-27T12:46:20.161Z,3.20
2022-11-27T12:48:54.766Z,4.00
2022-11-27T12:51:28.089Z,4.50
2022-11-27T12:54:01.232Z,2.50
2022-11-27T12:56:34.233Z,2.05
2022-11-27T12:59:12.759Z,1.80
2022-11-27T13:01:45.247Z,2.63
2022-11-27T13:04:20.996Z,2.30
2022-11-27T13:06:56.872Z,1.83
2022-11-27T13:09:33.623Z,1.98
2022-11-27T13:12:04.277Z,1.65
2022-11-27T13:14:34.686Z,2.28
2022-11-27T13:17:06.804Z,2.72
2022-11-27T13:19:39.533Z,4.45
2022-11-27T13:22:12.394Z,1.95
2022-11-27T13:24:41.051Z,2.13
2022-11-27T13:27:15.613Z,2.20
2022-11-27T13:29:47.681Z,1.50
2022-11-27T13:32:23.715Z,1.50
2022-11-27T13:34:53.276Z,1.75
2022-11-27T13:37:33.501Z,1.88
2022-11-27T13:40:05.347Z,3.05
2022-11-27T13:42:37.700Z,2.38
2022-11-27T13:45:11.483Z,2.40
2022-11-27T13:47:43.704Z,1.98
2022-11-27T13:50:15.359Z,2.00
2022-11-27T13:52:54.733Z,2.00
2022-11-27T13:55:28.379Z,1.50
2022-11-27T13:57:59.763Z,2.00
2022-11-27T14:00:37.408Z,1.95
2022-11-27T14:03:07.041Z,2.35
2022-11-27T14:05:41.596Z,2.05
2022-11-27T14:08:22.341Z,2.00
2022-11-27T14:10:54.601Z,2.63
2022-11-27T14:13:34.459Z,2.70
2022-11-27T14:16:04.968Z,5.53
2022-11-27T14:18:34.382Z,5.80
2022-11-27T14:21:05.028Z,4.20
2022-11-27T14:23:36.173Z,5.40
2022-11-27T14:26:14.674Z,3.45
2022-11-27T14:28:49.090Z,3.75
2022-11-27T14:31:26.040Z,4.38
2022-11-27T14:34:14.013Z,3.53
2022-11-27T14:36:43.289Z,2.50
2022-11-27T14:39:23.172Z,2.42
2022-11-27T14:41:58.358Z,2.80
2022-11-27T14:44:28.258Z,4.07
2022-11-27T14:46:58.385Z,4.28
2022-11-27T14:49:28.913Z,4.90
2022-11-27T14:52:02.132Z,5.90
2022-11-27T14:54:33.029Z,6.53
2022-11-27T14:57:01.448Z,6.00
2022-11-27T14:59:31.167Z,5.40
2022-11-27T15:02:01.890Z,4.55
2022-11-27T15:04:34.718Z,4.75
2022-11-27T15:07:06.303Z,4.70
2022-11-27T15:09:36.925Z,4.10
2022-11-27T15:12:14.844Z,4.60
2022-11-27T15:14:49.996Z,3.03
2022-11-27T15:17:22.484Z,3.50
2022-11-27T15:19:50.850Z,4.60
2022-11-27T15:22:19.922Z,4.40
2022-11-27T15:25:00.119Z,4.82
2022-11-27T15:27:28.616Z,4.13
2022-11-27T15:30:13.393Z,3.05
2022-11-27T15:32:51.473Z,3.28
2022-11-27T15:35:25.540Z,3.80
2022-11-27T15:37:55.874Z,3.10
2022-11-27T15:40:29.140Z,3.13
2022-11-27T15:42:57.609Z,2.83
2022-11-27T15:45:29.684Z,3.53
2022-11-27T15:48:02.561Z,3.20
2022-11-27T15:50:31.188Z,3.57
2022-11-27T15:53:01.043Z,3.10
2022-11-27T15:55:29.536Z,3.77
2022-11-27T15:57:58.039Z,4.57
2022-11-27T16:00:27.888Z,7.27
2022-11-27T16:02:56.438Z,4.30
2022-11-27T16:05:24.728Z,4.43
2022-11-27T16:07:55.313Z,4.80
2022-11-27T16:10:24.039Z,6.00
2022-11-27T16:12:55.432Z,6.77
2022-11-27T16:15:26.573Z,7.30
2022-11-27T16:17:58.419Z,6.53
2022-11-27T16:20:27.489Z,6.40
2022-11-27T16:22:55.810Z,6.03
2022-11-27T16:25:25.305Z,6.07
2022-11-27T16:27:58.020Z,5.23
2022-11-27T16:30:29.442Z,5.10
2022-11-27T16:32:59.187Z,4.50
2022-11-27T16:35:27.753Z,5.87
2022-11-27T16:37:56.154Z,4.87
2022-11-27T16:40:24.462Z,5.23
2022-11-27T16:42:52.943Z,6.03
2022-11-27T16:45:21.344Z,6.23
2022-11-27T16:47:49.603Z,5.87
2022-11-27T16:50:19.341Z,5.03
2022-11-27T16:52:53.993Z,5.00
2022-11-27T16:55:22.859Z,5.67
2022-11-27T16:57:51.544Z,4.10
2022-11-27T17:00:20.918Z,4.43
2022-11-27T17:02:49.324Z,5.53
2022-11-27T17:05:19.410Z,5.47
2022-11-27T17:07:47.857Z,6.27
2022-11-27T17:10:16.810Z,8.27
2022-11-27T17:12:45.172Z,8.63
2022-11-27T17:15:13.718Z,5.83
2022-11-27T17:17:42.774Z,4.67
2022-11-27T17:20:11.551Z,4.13
2022-11-27T17:22:41.292Z,3.97
2022-11-27T17:25:11.301Z,5.10
2022-11-27T17:27:39.628Z,8.20
2022-11-27T17:30:09.303Z,7.47
2022-11-27T17:32:37.728Z,9.60
2022-11-27T17:35:07.419Z,9.67
2022-11-27T17:37:35.698Z,9.97
2022-11-27T17:40:08.614Z,9.23
2022-11-27T17:42:36.929Z,6.83
2022-11-27T17:45:06.531Z,5.57
2022-11-27T17:47:34.920Z,7.20
2022-11-27T17:50:03.507Z,5.67
2022-11-27T17:52:31.794Z,6.63
2022-11-27T17:55:00.299Z,5.90
2022-11-27T17:57:29.992Z,8.23
2022-11-27T17:59:58.316Z,8.13
2022-11-27T18:02:26.721Z,9.17
2022-11-27T18:04:55.144Z,14.47
2022-11-27T18:07:23.502Z,17.23
2022-11-27T18:09:54.343Z,14.90
2022-11-27T18:12:22.750Z,14.17
2022-11-27T18:14:59.514Z,15.37
2022-11-27T18:17:30.331Z,15.87
2022-11-27T18:19:59.191Z,17.83
2022-11-27T18:22:27.529Z,20.10
2022-11-27T18:24:55.915Z,20.30
2022-11-27T18:27:24.238Z,18.97
2022-11-27T18:29:53.842Z,20.30
2022-11-27T18:32:22.937Z,14.50
2022-11-27T18:34:53.672Z,10.57
2022-11-27T18:37:23.546Z,10.90
2022-11-27T18:39:51.981Z,12.27
2022-11-27T18:42:20.288Z,14.03
2022-11-27T18:44:48.895Z,12.60
2022-11-27T18:47:18.702Z,11.83
2022-11-27T18:49:48.465Z,8.10
2022-11-27T18:52:16.789Z,6.70
2022-11-27T18:54:45.354Z,7.13
2022-11-27T18:57:13.721Z,4.83
2022-11-27T18:59:44.903Z,5.30
2022-11-27T19:02:13.611Z,10.17
2022-11-27T19:04:45.050Z,10.53
2022-11-27T19:07:13.575Z,18.37
2022-11-27T19:09:42.242Z,37.07
2022-11-27T19:12:10.741Z,23.53
2022-11-27T19:14:39.470Z,15.23
2022-11-27T19:17:07.999Z,18.63
2022-11-27T19:22:26.066Z,17.37
2022-11-27T19:24:54.349Z,10.83
2022-11-27T19:27:22.710Z,9.03
2022-11-27T19:29:50.939Z,16.97
2022-11-27T19:32:19.238Z,18.73
2022-11-27T19:34:47.472Z,12.80
2022-11-27T19:37:21.377Z,24.43
2022-11-27T19:40:04.705Z,26.07
2022-11-27T19:42:33.355Z,28.83
2022-11-27T19:45:01.632Z,28.63
2022-11-27T19:47:30.036Z,20.27
2022-11-27T19:49:58.315Z,17.23
2022-11-27T19:52:26.684Z,17.27
2022-11-27T19:54:55.240Z,19.50
2022-11-27T19:57:25.000Z,16.43
2022-11-27T19:59:53.254Z,13.70
2022-11-27T20:02:21.616Z,15.00
2022-11-27T20:04:50.251Z,14.83
2022-11-27T20:07:18.703Z,12.93
2022-11-27T20:09:47.123Z,12.50
2022-11-27T20:12:15.632Z,10.93
2022-11-27T20:14:45.366Z,12.17
2022-11-27T20:17:13.705Z,10.90
2022-11-27T20:19:42.487Z,12.73
2022-11-27T20:22:11.910Z,10.53
2022-11-27T20:24:58.033Z,12.70
2022-11-27T20:27:29.445Z,13.70
2022-11-27T20:30:00.432Z,11.43
2022-11-27T20:32:28.750Z,11.87
2022-11-27T20:34:57.200Z,12.33
2022-11-27T20:37:25.741Z,10.63
2022-11-27T20:39:53.994Z,8.93
2022-11-27T20:42:23.200Z,9.47
2022-11-27T20:44:51.644Z,12.73
2022-11-27T20:47:21.276Z,12.80
2022-11-27T20:49:49.602Z,13.77
2022-11-27T20:52:17.894Z,13.93
2022-11-27T20:54:46.426Z,11.40
2022-11-27T20:57:15.110Z,10.27
2022-11-27T20:59:44.235Z,10.13
2022-11-27T21:02:13.357Z,9.93
2022-11-27T21:04:43.264Z,8.73
2022-11-27T21:07:11.924Z,10.07
2022-11-27T21:09:40.604Z,7.90
2022-11-27T21:12:10.502Z,8.17
2022-11-27T21:14:38.842Z,6.53
2022-11-27T21:17:07.241Z,5.50
2022-11-27T21:19:35.592Z,10.50
2022-11-27T21:22:05.608Z,7.50
2022-11-27T21:24:33.983Z,8.67
2022-11-27T21:27:02.258Z,8.93
2022-11-27T21:29:30.861Z,34.17
2022-11-27T21:31:59.295Z,30.20
2022-11-27T21:34:27.778Z,29.43
2022-11-27T21:36:56.531Z,22.90
2022-11-27T21:39:26.626Z,28.27
2022-11-27T21:41:56.685Z,28.30
2022-11-27T21:44:26.467Z,24.60
2022-11-27T21:46:54.850Z,21.97
2022-11-27T21:49:23.561Z,12.90
2022-11-27T21:51:53.466Z,10.77
2022-11-27T21:54:22.007Z,8.63
2022-11-27T21:56:53.883Z,9.00
2022-11-27T21:59:22.120Z,8.27
2022-11-27T22:01:50.707Z,8.53
2022-11-27T22:04:19.239Z,7.10
2022-11-27T22:06:48.330Z,10.67
2022-11-27T22:09:16.816Z,6.87
2022-11-27T22:11:46.369Z,8.33
2022-11-27T22:14:17.220Z,10.80
2022-11-27T22:16:47.228Z,13.43
2022-11-27T22:19:16.003Z,11.37
2022-11-27T22:21:45.207Z,8.97
2022-11-27T22:24:18.759Z,7.47
2022-11-27T22:26:48.255Z,6.63
2022-11-27T22:29:18.321Z,6.20
2022-11-27T22:31:46.663Z,8.07
2022-11-27T22:34:14.871Z,7.67
2022-11-27T22:36:43.226Z,7.67
2022-11-27T22:39:11.610Z,5.97
2022-11-27T22:41:41.559Z,6.20
2022-11-27T22:44:12.647Z,6.50
2022-11-27T22:46:43.473Z,6.57
2022-11-27T22:49:13.685Z,5.50
2022-11-27T22:51:42.400Z,7.27
2022-11-27T22:54:13.721Z,5.47
2022-11-27T22:56:42.276Z,5.13
2022-11-27T22:59:31.754Z,7.27
2022-11-27T23:02:02.513Z,5.27
2022-11-27T23:04:31.020Z,5.93
2022-11-27T23:07:00.028Z,6.80
2022-11-27T23:09:28.507Z,7.53
2022-11-27T23:11:57.881Z,5.70
2022-11-27T23:14:26.786Z,5.67
2022-11-27T23:16:55.192Z,5.67
2022-11-27T23:19:24.944Z,5.03
2022-11-27T23:21:53.302Z,4.30
2022-11-27T23:24:21.561Z,4.77
2022-11-27T23:26:49.888Z,4.30
2022-11-27T23:29:18.181Z,4.03
2022-11-27T23:31:46.464Z,4.30
2022-11-27T23:34:16.302Z,4.30
2022-11-27T23:36:46.079Z,4.27
2022-11-27T23:39:15.315Z,4.40
2022-11-27T23:41:43.864Z,3.73
2022-11-27T23:44:12.281Z,4.90
2022-11-27T23:46:40.752Z,4.00
2022-11-27T23:49:09.089Z,4.23
2022-11-27T23:51:37.651Z,4.23
2022-11-27T23:54:10.951Z,3.93
2022-11-27T23:56:40.922Z,3.10
2022-11-27T23:59:09.221Z,2.97
